createdAt,value
2022-11-05T00:02:16.370Z,44
2022-11-05T00:04:47.441Z,40
2022-11-05T00:07:18.788Z,44
2022-11-05T00:09:49.473Z,45
2022-11-05T00:12:20.945Z,47
2022-11-05T00:14:51.744Z,48
2022-11-05T00:17:22.987Z,46
2022-11-05T00:19:54.087Z,48
2022-11-05T00:22:24.942Z,50
2022-11-05T00:24:56.378Z,48
2022-11-05T00:27:27.317Z,51
2022-11-05T00:29:58.706Z,50
2022-11-05T00:32:30.070Z,48
2022-11-05T00:35:01.661Z,44
2022-11-05T00:37:33.194Z,48
2022-11-05T00:40:04.536Z,50
2022-11-05T00:42:35.938Z,46
2022-11-05T00:45:07.141Z,48
2022-11-05T00:47:37.726Z,48
2022-11-05T00:50:08.327Z,48
2022-11-05T00:52:38.988Z,48
2022-11-05T00:55:09.915Z,48
2022-11-05T00:57:41.335Z,47
2022-11-05T01:00:11.850Z,47
2022-11-05T01:02:43.297Z,48
2022-11-05T01:05:14.865Z,48
2022-11-05T01:07:46.099Z,48
2022-11-05T01:10:17.077Z,44
2022-11-05T01:12:48.301Z,52
2022-11-05T01:15:19.589Z,48
2022-11-05T01:17:50.601Z,48
2022-11-05T01:20:21.282Z,44
2022-11-05T01:22:52.468Z,48
2022-11-05T01:25:23.823Z,48
2022-11-05T01:27:55.158Z,50
2022-11-05T01:30:26.636Z,47
2022-11-05T01:32:57.941Z,48
2022-11-05T01:35:28.355Z,44
2022-11-05T01:37:59.320Z,45
2022-11-05T01:40:30.018Z,44
2022-11-05T01:43:01.307Z,44
2022-11-05T01:45:31.878Z,44
2022-11-05T01:48:03.382Z,44
2022-11-05T01:50:34.515Z,40
2022-11-05T01:53:05.425Z,36
2022-11-05T01:55:36.726Z,40
2022-11-05T01:58:06.853Z,37
2022-11-05T02:00:37.555Z,36
2022-11-05T02:03:08.501Z,38
2022-11-05T02:05:39.374Z,41
2022-11-05T02:08:10.223Z,40
2022-11-05T02:10:41.396Z,41
2022-11-05T02:13:13.239Z,44
2022-11-05T02:15:44.275Z,50
2022-11-05T02:18:15.453Z,52
2022-11-05T02:20:51.930Z,56
2022-11-05T02:23:17.790Z,56
2022-11-05T02:25:48.557Z,60
2022-11-05T02:28:19.246Z,65
2022-11-05T02:30:50.687Z,63
2022-11-05T02:33:21.662Z,58
2022-11-05T02:35:53.144Z,68
2022-11-05T02:38:24.065Z,58
2022-11-05T02:40:55.292Z,60
2022-11-05T02:43:25.765Z,62
2022-11-05T02:45:56.397Z,62
2022-11-05T02:48:28.071Z,59
2022-11-05T02:50:59.084Z,62
2022-11-05T02:53:29.636Z,64
2022-11-05T02:56:01.341Z,57
2022-11-05T02:58:32.297Z,63
2022-11-05T03:01:03.555Z,56
2022-11-05T03:03:34.063Z,63
2022-11-05T03:06:05.031Z,59
2022-11-05T03:08:36.836Z,56
2022-11-05T03:11:08.495Z,56
2022-11-05T03:13:39.587Z,55
2022-11-05T03:16:10.668Z,52
2022-11-05T03:18:41.264Z,52
2022-11-05T03:21:13.036Z,54
2022-11-05T03:23:43.834Z,56
2022-11-05T03:26:15.562Z,56
2022-11-05T03:28:46.683Z,56
2022-11-05T03:31:18.249Z,52
2022-11-05T03:33:49.425Z,55
2022-11-05T03:36:20.411Z,50
2022-11-05T03:38:51.317Z,52
2022-11-05T03:41:22.067Z,44
2022-11-05T03:43:53.038Z,51
2022-11-05T03:46:23.960Z,50
2022-11-05T03:48:55.511Z,44
2022-11-05T03:51:26.188Z,48
2022-11-05T03:53:57.923Z,48
2022-11-05T03:56:29.716Z,48
2022-11-05T03:59:01.563Z,44
2022-11-05T04:01:32.522Z,44
2022-11-05T04:04:03.788Z,50
2022-11-05T04:06:34.585Z,48
2022-11-05T04:09:05.513Z,45
2022-11-05T04:11:35.940Z,48
2022-11-05T04:14:06.979Z,45
2022-11-05T04:16:38.067Z,40
2022-11-05T04:19:09.684Z,44
2022-11-05T04:21:41.520Z,44
2022-11-05T04:24:12.368Z,41
2022-11-05T04:26:43.388Z,40
2022-11-05T04:29:14.623Z,39
2022-11-05T04:31:46.834Z,44
2022-11-05T04:34:17.173Z,41
2022-11-05T04:36:48.599Z,38
2022-11-05T04:39:19.463Z,38
2022-11-05T04:41:50.965Z,44
2022-11-05T04:44:22.642Z,40
2022-11-05T04:46:53.330Z,44
2022-11-05T04:49:24.485Z,41
2022-11-05T04:51:56.450Z,40
2022-11-05T04:54:27.897Z,36
2022-11-05T04:56:59.012Z,40
2022-11-05T04:59:31.145Z,39
2022-11-05T05:02:02.513Z,33
2022-11-05T05:04:33.939Z,35
2022-11-05T05:07:04.882Z,36
2022-11-05T05:09:36.125Z,32
2022-11-05T05:12:06.723Z,40
2022-11-05T05:14:38.050Z,38
2022-11-05T05:17:09.619Z,36
2022-11-05T05:19:41.143Z,36
2022-11-05T05:22:13.183Z,34
2022-11-05T05:24:48.656Z,36
2022-11-05T05:27:15.873Z,35
2022-11-05T05:29:47.760Z,38
2022-11-05T05:32:19.062Z,36
2022-11-05T05:34:50.185Z,32
2022-11-05T05:37:21.050Z,39
2022-11-05T05:39:51.561Z,33
2022-11-05T05:42:22.818Z,35
2022-11-05T05:44:53.735Z,36
2022-11-05T05:47:24.889Z,40
2022-11-05T05:49:56.532Z,43
2022-11-05T05:52:27.956Z,36
2022-11-05T05:54:58.968Z,41
2022-11-05T05:57:31.049Z,36
2022-11-05T06:00:03.031Z,40
2022-11-05T06:02:34.107Z,40
2022-11-05T06:05:05.702Z,39
2022-11-05T06:07:37.537Z,40
2022-11-05T06:10:06.554Z,40
2022-11-05T06:12:37.313Z,41
2022-11-05T06:15:08.579Z,40
2022-11-05T06:17:40.294Z,41
2022-11-05T06:20:11.427Z,40
2022-11-05T06:22:42.067Z,41
2022-11-05T06:25:13.641Z,44
2022-11-05T06:27:44.702Z,44
2022-11-05T06:30:16.670Z,44
2022-11-05T06:32:47.915Z,44
2022-11-05T06:35:18.771Z,39
2022-11-05T06:37:50.374Z,40
2022-11-05T06:40:21.876Z,40
2022-11-05T06:42:53.201Z,49
2022-11-05T06:45:24.451Z,44
2022-11-05T06:47:56.079Z,44
2022-11-05T06:50:27.967Z,44
2022-11-05T06:52:58.910Z,47
2022-11-05T06:55:29.540Z,50
2022-11-05T06:58:01.310Z,45
2022-11-05T07:00:32.338Z,48
2022-11-05T07:03:03.826Z,46
2022-11-05T07:05:34.661Z,48
2022-11-05T07:08:06.082Z,44
2022-11-05T07:10:36.465Z,48
2022-11-05T07:13:08.571Z,48
2022-11-05T07:15:38.135Z,48
2022-11-05T07:18:09.260Z,51
2022-11-05T07:20:40.587Z,49
2022-11-05T07:23:12.631Z,52
2022-11-05T07:25:43.682Z,48
2022-11-05T07:28:14.501Z,52
2022-11-05T07:30:45.448Z,52
2022-11-05T07:33:16.607Z,49
2022-11-05T07:35:47.621Z,48
2022-11-05T07:38:18.406Z,52
2022-11-05T07:40:49.591Z,52
2022-11-05T07:43:20.825Z,48
2022-11-05T07:45:52.212Z,44
2022-11-05T07:48:23.806Z,49
2022-11-05T07:50:54.427Z,47
2022-11-05T07:53:25.776Z,49
2022-11-05T07:55:56.906Z,52
2022-11-05T07:58:28.088Z,48
2022-11-05T08:01:00.066Z,52
2022-11-05T08:03:31.362Z,52
2022-11-05T08:06:02.305Z,50
2022-11-05T08:08:33.778Z,48
2022-11-05T08:11:04.699Z,52
2022-11-05T08:13:35.381Z,48
2022-11-05T08:16:06.670Z,52
2022-11-05T08:18:37.772Z,48
2022-11-05T08:21:09.085Z,52
2022-11-05T08:23:41.706Z,52
2022-11-05T08:26:13.548Z,55
2022-11-05T08:28:44.686Z,55
2022-11-05T08:31:16.882Z,56
2022-11-05T08:33:48.121Z,53
2022-11-05T08:36:18.986Z,56
2022-11-05T08:38:50.694Z,56
2022-11-05T08:41:22.664Z,52
2022-11-05T08:43:54.351Z,53
2022-11-05T08:46:26.787Z,48
2022-11-05T08:48:56.614Z,52
2022-11-05T08:51:29.360Z,52
2022-11-05T08:54:00.905Z,52
2022-11-05T08:56:32.486Z,56
2022-11-05T08:59:03.953Z,56
2022-11-05T09:01:35.316Z,56
2022-11-05T09:04:06.646Z,51
2022-11-05T09:06:37.902Z,55
2022-11-05T09:09:09.485Z,56
2022-11-05T09:12:05.618Z,56
2022-11-05T09:14:11.346Z,54
2022-11-05T09:16:42.349Z,50
2022-11-05T09:19:13.927Z,52
2022-11-05T09:21:45.545Z,52
2022-11-05T09:24:17.389Z,52
2022-11-05T09:26:48.520Z,52
2022-11-05T09:29:20.315Z,52
2022-11-05T09:31:51.972Z,52
2022-11-05T09:34:23.534Z,52
2022-11-05T09:36:54.724Z,48
2022-11-05T09:39:25.965Z,48
2022-11-05T09:41:57.182Z,52
2022-11-05T09:44:29.084Z,49
2022-11-05T09:46:59.747Z,48
2022-11-05T09:49:31.410Z,48
2022-11-05T09:52:03.045Z,48
2022-11-05T09:54:34.475Z,50
2022-11-05T09:57:05.459Z,47
2022-11-05T09:59:36.521Z,47
2022-11-05T10:02:08.333Z,56
2022-11-05T10:04:39.502Z,56
2022-11-05T10:07:10.446Z,54
2022-11-05T10:09:42.261Z,52
2022-11-05T10:12:13.471Z,52
2022-11-05T10:14:45.544Z,56
2022-11-05T10:17:16.344Z,52
2022-11-05T10:19:47.312Z,56
2022-11-05T10:22:19.066Z,56
2022-11-05T10:24:50.217Z,52
2022-11-05T10:27:19.774Z,56
2022-11-05T10:29:50.884Z,51
2022-11-05T10:32:22.076Z,48
2022-11-05T10:34:54.160Z,45
2022-11-05T10:37:25.632Z,41
2022-11-05T10:39:56.549Z,40
2022-11-05T10:42:27.376Z,37
2022-11-05T10:44:59.029Z,42
2022-11-05T10:47:30.440Z,39
2022-11-05T10:50:01.563Z,32
2022-11-05T10:52:33.314Z,40
2022-11-05T10:55:04.550Z,35
2022-11-05T10:57:35.588Z,36
2022-11-05T11:00:07.301Z,32
2022-11-05T11:02:38.775Z,32
2022-11-05T11:05:10.403Z,27
2022-11-05T11:07:41.423Z,32
2022-11-05T11:10:12.914Z,30
2022-11-05T11:12:44.251Z,30
2022-11-05T11:15:15.002Z,31
2022-11-05T11:17:46.373Z,29
2022-11-05T11:20:18.010Z,28
2022-11-05T11:22:48.593Z,28
2022-11-05T11:25:20.383Z,30
2022-11-05T11:27:51.872Z,32
2022-11-05T11:30:23.115Z,22
2022-11-05T11:32:54.197Z,28
2022-11-05T11:35:25.985Z,37
2022-11-05T11:37:58.056Z,48
2022-11-05T11:40:29.866Z,34
2022-11-05T11:43:00.654Z,36
2022-11-05T11:45:31.543Z,28
2022-11-05T11:48:02.422Z,32
2022-11-05T11:50:34.354Z,30
2022-11-05T11:53:06.175Z,28
2022-11-05T11:55:36.950Z,24
2022-11-05T11:58:08.298Z,28
2022-11-05T12:00:40.539Z,23
2022-11-05T12:03:12.076Z,20
2022-11-05T12:05:44.016Z,27
2022-11-05T12:08:15.590Z,24
2022-11-05T12:10:47.212Z,26
2022-11-05T12:13:18.553Z,28
2022-11-05T12:15:50.026Z,20
2022-11-05T12:18:21.866Z,41
2022-11-05T12:20:57.924Z,28
2022-11-05T12:23:24.823Z,16
2022-11-05T12:25:56.032Z,20
2022-11-05T12:28:29.236Z,16
2022-11-05T12:31:00.244Z,17
2022-11-05T12:33:31.290Z,16
2022-11-05T12:36:02.498Z,16
2022-11-05T12:38:34.674Z,12
2022-11-05T12:41:06.306Z,16
2022-11-05T12:43:37.495Z,12
2022-11-05T12:46:08.809Z,15
2022-11-05T12:48:40.432Z,12
2022-11-05T12:51:12.017Z,12
2022-11-05T12:53:43.741Z,15
2022-11-05T12:56:14.867Z,12
2022-11-05T12:58:46.680Z,12
2022-11-05T13:01:18.211Z,12
2022-11-05T13:03:49.876Z,12
2022-11-05T13:06:21.103Z,15
2022-11-05T13:08:52.532Z,15
2022-11-05T13:11:24.031Z,16
2022-11-05T13:13:55.237Z,16
2022-11-05T13:16:26.461Z,16
2022-11-05T13:18:58.147Z,19
2022-11-05T13:21:29.513Z,17
2022-11-05T13:24:01.239Z,16
2022-11-05T13:26:33.168Z,14
2022-11-05T13:29:04.816Z,12
2022-11-05T13:31:36.486Z,20
2022-11-05T13:34:07.892Z,14
2022-11-05T13:36:38.733Z,16
2022-11-05T13:39:10.130Z,20
2022-11-05T13:41:41.871Z,18
2022-11-05T13:44:14.243Z,24
2022-11-05T13:46:45.102Z,28
2022-11-05T13:49:16.192Z,21
2022-11-05T13:51:47.605Z,16
2022-11-05T13:54:19.329Z,47
2022-11-05T13:56:50.187Z,36
2022-11-05T13:59:21.932Z,40
2022-11-05T14:01:55.201Z,36
2022-11-05T14:04:26.540Z,25
2022-11-05T14:06:57.222Z,29
2022-11-05T14:09:29.283Z,28
2022-11-05T14:12:00.600Z,28
2022-11-05T14:14:30.800Z,24
2022-11-05T14:17:01.775Z,18
2022-11-05T14:19:34.232Z,14
2022-11-05T14:22:06.008Z,20
2022-11-05T14:24:38.561Z,18
2022-11-05T14:27:09.690Z,16
2022-11-05T14:29:41.182Z,20
2022-11-05T14:32:12.455Z,24
2022-11-05T14:34:43.625Z,24
2022-11-05T14:37:14.403Z,20
2022-11-05T14:39:46.302Z,28
2022-11-05T14:42:17.223Z,24
2022-11-05T14:44:49.031Z,31
2022-11-05T14:47:19.969Z,21
2022-11-05T14:49:51.016Z,16
2022-11-05T14:52:22.069Z,21
2022-11-05T14:54:53.295Z,27
2022-11-05T14:57:24.544Z,28
2022-11-05T14:59:56.644Z,28
2022-11-05T15:02:28.975Z,24
2022-11-05T15:05:04.278Z,26
2022-11-05T15:07:35.048Z,24
2022-11-05T15:10:10.219Z,20
2022-11-05T15:12:41.173Z,23
2022-11-05T15:15:16.072Z,20
2022-11-05T15:17:45.060Z,24
2022-11-05T15:20:16.906Z,30
2022-11-05T15:22:48.631Z,32
2022-11-05T15:25:19.942Z,28
2022-11-05T15:27:51.855Z,28
2022-11-05T15:30:23.368Z,28
2022-11-05T15:32:54.945Z,24
2022-11-05T15:35:26.051Z,24
2022-11-05T15:38:01.939Z,31
2022-11-05T15:40:29.244Z,28
2022-11-05T15:43:00.390Z,29
2022-11-05T15:45:31.710Z,32
2022-11-05T15:48:02.748Z,29
2022-11-05T15:50:34.007Z,29
2022-11-05T15:53:27.691Z,24
2022-11-05T15:55:36.778Z,34
2022-11-05T15:58:06.272Z,37
2022-11-05T16:00:37.070Z,37
2022-11-05T16:03:09.365Z,39
2022-11-05T16:05:41.481Z,32
2022-11-05T16:08:13.428Z,33
2022-11-05T16:10:44.834Z,35
2022-11-05T16:13:16.682Z,36
2022-11-05T16:15:47.803Z,32
2022-11-05T16:18:19.263Z,36
2022-11-05T16:20:51.060Z,39
2022-11-05T16:23:22.487Z,36
2022-11-05T16:25:53.205Z,40
2022-11-05T16:28:25.176Z,44
2022-11-05T16:30:57.327Z,42
2022-11-05T16:33:29.321Z,42
2022-11-05T16:36:01.220Z,42
2022-11-05T16:38:32.161Z,40
2022-11-05T16:41:03.451Z,48
2022-11-05T16:43:34.283Z,44
2022-11-05T16:46:05.882Z,44
2022-11-05T16:48:36.664Z,45
2022-11-05T16:51:08.022Z,44
2022-11-05T16:53:39.460Z,40
2022-11-05T16:56:11.461Z,40
2022-11-05T16:58:43.177Z,40
2022-11-05T17:01:14.229Z,44
2022-11-05T17:03:45.711Z,40
2022-11-05T17:06:17.284Z,44
2022-11-05T17:08:48.632Z,43
2022-11-05T17:11:20.240Z,44
2022-11-05T17:13:51.438Z,44
2022-11-05T17:16:22.582Z,37
2022-11-05T17:18:53.816Z,48
2022-11-05T17:21:25.253Z,40
2022-11-05T17:23:56.992Z,40
2022-11-05T17:26:28.704Z,42
2022-11-05T17:28:59.547Z,44
2022-11-05T17:31:31.615Z,44
2022-11-05T17:34:03.048Z,44
2022-11-05T17:36:34.422Z,44
2022-11-05T17:39:05.618Z,48
2022-11-05T17:41:36.905Z,40
2022-11-05T17:44:07.809Z,44
2022-11-05T17:46:38.581Z,40
2022-11-05T17:49:10.138Z,41
2022-11-05T17:51:43.266Z,44
2022-11-05T17:54:14.584Z,44
2022-11-05T17:56:46.154Z,40
2022-11-05T17:59:16.851Z,44
2022-11-05T18:01:48.172Z,48
2022-11-05T18:04:19.113Z,40
2022-11-05T18:06:50.729Z,52
2022-11-05T18:09:21.809Z,48
2022-11-05T18:11:53.822Z,42
2022-11-05T18:14:26.104Z,44
2022-11-05T18:16:56.991Z,44
2022-11-05T18:19:29.502Z,40
2022-11-05T18:22:00.555Z,40
2022-11-05T18:24:33.958Z,41
2022-11-05T18:27:06.198Z,44
2022-11-05T18:29:37.366Z,44
2022-11-05T18:32:09.074Z,44
2022-11-05T18:34:40.802Z,44
2022-11-05T18:37:13.183Z,40
2022-11-05T18:39:44.449Z,40
2022-11-05T18:42:15.616Z,46
2022-11-05T18:44:46.955Z,40
2022-11-05T18:47:18.319Z,40
2022-11-05T18:49:49.222Z,43
2022-11-05T18:52:20.708Z,41
2022-11-05T18:54:50.163Z,43
2022-11-05T18:57:21.423Z,48
2022-11-05T18:59:52.820Z,44
2022-11-05T19:02:24.515Z,45
2022-11-05T19:05:22.386Z,51
2022-11-05T19:07:29.171Z,48
2022-11-05T19:10:00.803Z,43
2022-11-05T19:12:31.956Z,47
2022-11-05T19:15:03.677Z,40
2022-11-05T19:17:35.891Z,44
2022-11-05T19:20:07.083Z,44
2022-11-05T19:22:37.964Z,45
2022-11-05T19:25:09.459Z,48
2022-11-05T19:27:40.709Z,48
2022-11-05T19:30:14.668Z,44
2022-11-05T19:32:47.822Z,48
2022-11-05T19:35:19.448Z,40
2022-11-05T19:37:51.449Z,48
2022-11-05T19:40:22.641Z,48
2022-11-05T19:42:53.834Z,52
2022-11-05T19:47:56.408Z,48
2022-11-05T19:50:28.459Z,57
2022-11-05T19:53:00.887Z,48
2022-11-05T19:55:32.053Z,48
2022-11-05T19:58:03.209Z,52
2022-11-05T20:00:34.764Z,48
2022-11-05T20:03:06.130Z,52
2022-11-05T20:05:38.003Z,52
2022-11-05T20:08:10.120Z,50
2022-11-05T20:10:40.671Z,48
2022-11-05T20:13:15.601Z,44
2022-11-05T20:15:44.441Z,44
2022-11-05T20:18:16.169Z,52
2022-11-05T20:20:47.948Z,52
2022-11-05T20:23:20.308Z,48
2022-11-05T20:25:52.075Z,48
2022-11-05T20:28:23.568Z,46
2022-11-05T20:30:54.672Z,48
2022-11-05T20:33:26.103Z,48
2022-11-05T20:35:57.144Z,48
2022-11-05T20:38:29.612Z,41
2022-11-05T20:41:01.272Z,52
2022-11-05T20:43:33.689Z,48
2022-11-05T20:46:05.632Z,47
2022-11-05T20:48:36.903Z,47
2022-11-05T20:51:08.345Z,47
2022-11-05T20:53:40.965Z,46
2022-11-05T20:56:13.146Z,51
2022-11-05T20:58:44.348Z,46
2022-11-05T21:01:16.430Z,48
2022-11-05T21:03:48.782Z,48
2022-11-05T21:06:19.853Z,56
2022-11-05T21:08:52.801Z,56
2022-11-05T21:11:24.004Z,48
2022-11-05T21:13:55.353Z,46
2022-11-05T21:16:27.023Z,52
2022-11-05T21:18:58.196Z,46
2022-11-05T21:21:29.742Z,47
2022-11-05T21:24:01.198Z,48
2022-11-05T21:26:32.518Z,44
2022-11-05T21:29:03.961Z,48
2022-11-05T21:31:35.547Z,41
2022-11-05T21:34:06.671Z,44
2022-11-05T21:36:37.748Z,47
2022-11-05T21:39:13.144Z,47
2022-11-05T21:41:40.702Z,44
2022-11-05T21:44:11.729Z,48
2022-11-05T21:46:43.227Z,43
2022-11-05T21:49:14.453Z,46
2022-11-05T21:51:46.766Z,41
2022-11-05T21:54:18.188Z,44
2022-11-05T21:56:50.543Z,45
2022-11-05T21:59:25.591Z,47
2022-11-05T22:01:57.298Z,44
2022-11-05T22:04:29.065Z,42
2022-11-05T22:07:00.632Z,45
2022-11-05T22:09:32.016Z,45
2022-11-05T22:12:03.504Z,49
2022-11-05T22:14:37.165Z,44
2022-11-05T22:17:09.418Z,44
2022-11-05T22:19:41.230Z,46
2022-11-05T22:22:12.044Z,43
2022-11-05T22:24:43.849Z,44
2022-11-05T22:27:15.070Z,48
2022-11-05T22:29:48.594Z,44
2022-11-05T22:32:19.772Z,44
2022-11-05T22:34:51.048Z,44
2022-11-05T22:37:22.690Z,43
2022-11-05T22:39:54.691Z,41
2022-11-05T22:42:26.715Z,48
2022-11-05T22:44:58.537Z,47
2022-11-05T22:47:30.245Z,48
2022-11-05T22:50:02.361Z,48
2022-11-05T22:52:33.662Z,47
2022-11-05T22:55:04.925Z,47
2022-11-05T22:57:36.943Z,47
2022-11-05T23:00:10.002Z,45
2022-11-05T23:02:42.100Z,44
2022-11-05T23:05:17.133Z,44
2022-11-05T23:07:48.676Z,44
2022-11-05T23:10:19.914Z,46
2022-11-05T23:12:50.727Z,41
2022-11-05T23:15:21.979Z,43
2022-11-05T23:17:52.889Z,46
2022-11-05T23:20:24.060Z,44
2022-11-05T23:22:55.188Z,46
2022-11-05T23:25:26.844Z,47
2022-11-05T23:27:57.922Z,48
2022-11-05T23:30:29.453Z,48
2022-11-05T23:33:00.577Z,43
2022-11-05T23:35:31.303Z,45
2022-11-05T23:38:02.052Z,47
2022-11-05T23:40:33.123Z,43
2022-11-05T23:43:04.145Z,44
2022-11-05T23:45:35.027Z,44
2022-11-05T23:48:06.062Z,44
2022-11-05T23:50:39.894Z,38
2022-11-05T23:53:08.467Z,44
2022-11-05T23:55:38.999Z,40
2022-11-05T23:58:10.770Z,40
